RER1015 SEGU-SEQM
Flight info
| Callsign | RER1015 |
|---|---|
| Flight time | 0h 35m |
| Altitude | 23000 |
| Route | REGAP2 PAMIS |
| Aircraft | B736/M-SDE2E3FGHIRWXY/LB1 |
Departure
| Time | 2026-04-27 02:55 |
|---|---|
| Airport | José Joaquín de Olmedo International Airport (SEGU) |
Arrival
| Time | 2026-04-27 03:30 |
|---|---|
| Airport | Mariscal Sucre International Airport (SEQM) |
| Time | Latitude | Longitude | Altitude | Speed | Heading |
|---|---|---|---|---|---|
| 2026-04-27 02:21 | -2.15016 | -79.88422 | 28 ft | 0 kts | 300° |
| 2026-04-27 02:45 | -2.15023 | -79.88410 | 28 ft | 2 kts | 300° |
| 2026-04-27 02:45 | -2.15031 | -79.88396 | 28 ft | 2 kts | 300° |
| 2026-04-27 02:45 | -2.15040 | -79.88382 | 28 ft | 2 kts | 301° |
| 2026-04-27 02:45 | -2.15048 | -79.88367 | 28 ft | 2 kts | 309° |
| 2026-04-27 02:46 | -2.15062 | -79.88359 | 28 ft | 2 kts | 6° |
| 2026-04-27 02:46 | -2.15078 | -79.88364 | 28 ft | 2 kts | 30° |
| 2026-04-27 02:46 | -2.15090 | -79.88371 | 28 ft | 1 kts | 30° |
| 2026-04-27 02:46 | -2.15091 | -79.88372 | 28 ft | 0 kts | 30° |
| 2026-04-27 02:49 | -2.15090 | -79.88371 | 28 ft | 1 kts | 30° |
| 2026-04-27 02:49 | -2.15074 | -79.88362 | 28 ft | 5 kts | 29° |
| 2026-04-27 02:50 | -2.15035 | -79.88340 | 28 ft | 8 kts | 30° |
| 2026-04-27 02:50 | -2.14978 | -79.88308 | 28 ft | 10 kts | 30° |
| 2026-04-27 02:50 | -2.14913 | -79.88271 | 28 ft | 11 kts | 30° |
| 2026-04-27 02:50 | -2.14850 | -79.88234 | 28 ft | 10 kts | 30° |
| 2026-04-27 02:51 | -2.14790 | -79.88199 | 28 ft | 10 kts | 35° |
| 2026-04-27 02:51 | -2.14793 | -79.88148 | 28 ft | 8 kts | 118° |
| 2026-04-27 02:51 | -2.14820 | -79.88100 | 28 ft | 8 kts | 120° |
| 2026-04-27 02:51 | -2.14841 | -79.88055 | 28 ft | 7 kts | 95° |
| 2026-04-27 02:52 | -2.14815 | -79.88022 | 28 ft | 6 kts | 32° |
| 2026-04-27 02:52 | -2.14777 | -79.87998 | 28 ft | 7 kts | 30° |
| 2026-04-27 02:52 | -2.14735 | -79.87975 | 28 ft | 7 kts | 28° |
| 2026-04-27 02:52 | -2.14690 | -79.87950 | 28 ft | 8 kts | 32° |
| 2026-04-27 02:53 | -2.14659 | -79.87908 | 28 ft | 8 kts | 65° |
| 2026-04-27 02:53 | -2.14641 | -79.87855 | 27 ft | 8 kts | 73° |
| 2026-04-27 02:53 | -2.14632 | -79.87798 | 27 ft | 9 kts | 90° |
| 2026-04-27 02:53 | -2.14662 | -79.87750 | 27 ft | 8 kts | 159° |
| 2026-04-27 02:54 | -2.14714 | -79.87773 | 26 ft | 15 kts | 210° |
| 2026-04-27 02:54 | -2.14992 | -79.87935 | 28 ft | 77 kts | 210° |
| 2026-04-27 02:54 | -2.15613 | -79.88292 | 29 ft | 126 kts | 210° |
| 2026-04-27 02:54 | -2.16444 | -79.88776 | 246 ft | 142 kts | 212° |
| 2026-04-27 02:55 | -2.17289 | -79.89299 | 644 ft | 145 kts | 214° |
| 2026-04-27 02:55 | -2.18125 | -79.89835 | 1090 ft | 141 kts | 214° |
| 2026-04-27 02:55 | -2.18960 | -79.90347 | 1556 ft | 142 kts | 213° |
| 2026-04-27 02:55 | -2.19916 | -79.90771 | 1909 ft | 164 kts | 187° |
| 2026-04-27 02:56 | -2.21091 | -79.90453 | 2181 ft | 196 kts | 146° |
| 2026-04-27 02:56 | -2.21885 | -79.89241 | 2412 ft | 226 kts | 103° |
| 2026-04-27 02:56 | -2.21670 | -79.87652 | 2720 ft | 250 kts | 66° |
| 2026-04-27 02:56 | -2.20475 | -79.86292 | 3068 ft | 269 kts | 39° |
| 2026-04-27 02:57 | -2.18987 | -79.85136 | 3933 ft | 269 kts | 39° |
| 2026-04-27 02:57 | -2.17546 | -79.83947 | 4869 ft | 268 kts | 40° |
| 2026-04-27 02:57 | -2.16140 | -79.82747 | 5713 ft | 270 kts | 40° |
| 2026-04-27 02:57 | -2.14710 | -79.81494 | 6564 ft | 273 kts | 41° |
| 2026-04-27 02:58 | -2.13269 | -79.80212 | 7344 ft | 279 kts | 41° |
| 2026-04-27 02:58 | -2.11812 | -79.78902 | 8155 ft | 284 kts | 42° |
| 2026-04-27 02:58 | -2.10346 | -79.77575 | 9002 ft | 289 kts | 42° |
| 2026-04-27 02:58 | -2.08832 | -79.76199 | 9872 ft | 296 kts | 42° |
| 2026-04-27 02:59 | -2.07299 | -79.74802 | 10526 ft | 309 kts | 43° |
| 2026-04-27 02:59 | -2.05660 | -79.73307 | 11184 ft | 320 kts | 43° |
| 2026-04-27 02:59 | -2.03957 | -79.71854 | 12031 ft | 325 kts | 36° |
| 2026-04-27 02:59 | -2.02023 | -79.70635 | 12936 ft | 329 kts | 31° |
| 2026-04-27 03:00 | -2.00009 | -79.69519 | 13812 ft | 333 kts | 30° |
| 2026-04-27 03:00 | -1.97977 | -79.68422 | 14586 ft | 338 kts | 30° |
| 2026-04-27 03:00 | -1.95891 | -79.67290 | 15372 ft | 342 kts | 30° |
| 2026-04-27 03:00 | -1.93781 | -79.66129 | 16173 ft | 347 kts | 30° |
| 2026-04-27 03:01 | -1.91679 | -79.64959 | 16945 ft | 351 kts | 31° |
| 2026-04-27 03:01 | -1.89516 | -79.63744 | 17738 ft | 356 kts | 31° |
| 2026-04-27 03:01 | -1.87335 | -79.62513 | 18533 ft | 358 kts | 31° |
| 2026-04-27 03:01 | -1.85192 | -79.61300 | 19399 ft | 355 kts | 31° |
| 2026-04-27 03:02 | -1.83042 | -79.60082 | 20349 ft | 351 kts | 31° |
| 2026-04-27 03:02 | -1.80930 | -79.58884 | 21255 ft | 350 kts | 31° |
| 2026-04-27 03:02 | -1.78824 | -79.57689 | 22129 ft | 349 kts | 31° |
| 2026-04-27 03:02 | -1.76682 | -79.56473 | 22680 ft | 350 kts | 31° |
| 2026-04-27 03:03 | -1.74583 | -79.55282 | 22974 ft | 349 kts | 31° |
| 2026-04-27 03:03 | -1.70322 | -79.52865 | 22970 ft | 349 kts | 31° |
| 2026-04-27 03:03 | -1.68240 | -79.51683 | 22981 ft | 348 kts | 31° |
| 2026-04-27 03:04 | -1.66129 | -79.50486 | 22984 ft | 347 kts | 31° |
| 2026-04-27 03:04 | -1.64023 | -79.49291 | 22993 ft | 347 kts | 31° |
| 2026-04-27 03:04 | -1.61916 | -79.48096 | 22990 ft | 347 kts | 31° |
| 2026-04-27 03:04 | -1.59820 | -79.46906 | 23000 ft | 347 kts | 31° |
| 2026-04-27 03:05 | -1.57728 | -79.45709 | 23003 ft | 348 kts | 31° |
| 2026-04-27 03:05 | -1.55653 | -79.44506 | 23007 ft | 348 kts | 31° |
| 2026-04-27 03:05 | -1.53552 | -79.43282 | 23012 ft | 349 kts | 31° |
| 2026-04-27 03:05 | -1.51442 | -79.42052 | 23016 ft | 350 kts | 31° |
| 2026-04-27 03:06 | -1.49347 | -79.40832 | 23021 ft | 350 kts | 31° |
| 2026-04-27 03:06 | -1.47250 | -79.39612 | 23026 ft | 351 kts | 31° |
| 2026-04-27 03:06 | -1.45143 | -79.38387 | 23030 ft | 351 kts | 31° |
| 2026-04-27 03:06 | -1.43030 | -79.37159 | 23039 ft | 351 kts | 31° |
| 2026-04-27 03:07 | -1.40910 | -79.35928 | 23043 ft | 351 kts | 31° |
| 2026-04-27 03:07 | -1.38800 | -79.34702 | 23051 ft | 351 kts | 31° |
| 2026-04-27 03:07 | -1.36706 | -79.33486 | 23052 ft | 351 kts | 31° |
| 2026-04-27 03:07 | -1.34585 | -79.32255 | 23056 ft | 351 kts | 31° |
| 2026-04-27 03:08 | -1.32491 | -79.31038 | 23066 ft | 350 kts | 31° |
| 2026-04-27 03:08 | -1.30371 | -79.29807 | 23072 ft | 350 kts | 31° |
| 2026-04-27 03:08 | -1.28258 | -79.28580 | 23071 ft | 350 kts | 31° |
| 2026-04-27 03:08 | -1.26165 | -79.27365 | 23084 ft | 350 kts | 31° |
| 2026-04-27 03:09 | -1.24050 | -79.26137 | 23089 ft | 350 kts | 31° |
| 2026-04-27 03:09 | -1.21966 | -79.24927 | 23099 ft | 349 kts | 31° |
| 2026-04-27 03:09 | -1.19849 | -79.23698 | 23105 ft | 349 kts | 31° |
| 2026-04-27 03:09 | -1.17747 | -79.22478 | 23114 ft | 349 kts | 31° |
| 2026-04-27 03:10 | -1.15658 | -79.21265 | 23117 ft | 349 kts | 31° |
| 2026-04-27 03:10 | -1.13551 | -79.20042 | 23121 ft | 349 kts | 31° |
| 2026-04-27 03:10 | -1.11469 | -79.18833 | 23130 ft | 349 kts | 31° |
| 2026-04-27 03:10 | -1.09364 | -79.17611 | 23134 ft | 349 kts | 31° |
| 2026-04-27 03:11 | -1.07260 | -79.16389 | 23146 ft | 349 kts | 31° |
| 2026-04-27 03:11 | -1.05866 | -79.15580 | 23146 ft | 350 kts | 31° |
| 2026-04-27 03:11 | -1.03052 | -79.13946 | 23148 ft | 350 kts | 31° |
| 2026-04-27 03:11 | -1.01650 | -79.13132 | 23149 ft | 350 kts | 31° |
| 2026-04-27 03:12 | -0.98852 | -79.11508 | 23162 ft | 350 kts | 31° |
| 2026-04-27 03:12 | -0.97445 | -79.10692 | 23167 ft | 350 kts | 31° |
| 2026-04-27 03:12 | -0.95330 | -79.09464 | 23171 ft | 350 kts | 31° |
| 2026-04-27 03:12 | -0.93239 | -79.08250 | 23180 ft | 350 kts | 31° |
| 2026-04-27 03:13 | -0.91136 | -79.07030 | 23190 ft | 350 kts | 31° |
| 2026-04-27 03:13 | -0.89028 | -79.05806 | 23190 ft | 350 kts | 31° |
| 2026-04-27 03:13 | -0.86913 | -79.04579 | 23189 ft | 350 kts | 31° |
| 2026-04-27 03:13 | -0.84803 | -79.03354 | 23199 ft | 350 kts | 31° |
| 2026-04-27 03:14 | -0.82694 | -79.02130 | 23202 ft | 350 kts | 31° |
| 2026-04-27 03:14 | -0.80675 | -79.00771 | 23186 ft | 349 kts | 45° |
| 2026-04-27 03:14 | -0.79128 | -78.98944 | 23227 ft | 348 kts | 54° |
| 2026-04-27 03:14 | -0.77712 | -78.96951 | 22999 ft | 350 kts | 56° |
| 2026-04-27 03:15 | -0.76335 | -78.94946 | 22805 ft | 346 kts | 56° |
| 2026-04-27 03:15 | -0.74999 | -78.92985 | 22621 ft | 344 kts | 56° |
| 2026-04-27 03:15 | -0.73654 | -78.91002 | 22358 ft | 345 kts | 57° |
| 2026-04-27 03:15 | -0.72318 | -78.89027 | 22089 ft | 345 kts | 57° |
| 2026-04-27 03:16 | -0.70967 | -78.87029 | 21814 ft | 346 kts | 57° |
| 2026-04-27 03:16 | -0.69616 | -78.85029 | 21426 ft | 345 kts | 57° |
| 2026-04-27 03:16 | -0.68293 | -78.83071 | 21063 ft | 342 kts | 57° |
| 2026-04-27 03:16 | -0.66952 | -78.81088 | 20682 ft | 339 kts | 57° |
| 2026-04-27 03:17 | -0.65655 | -78.79172 | 20319 ft | 335 kts | 57° |
| 2026-04-27 03:17 | -0.64356 | -78.77254 | 19950 ft | 330 kts | 57° |
| 2026-04-27 03:17 | -0.63069 | -78.75356 | 19581 ft | 327 kts | 57° |
| 2026-04-27 03:17 | -0.61799 | -78.73485 | 19241 ft | 324 kts | 57° |
| 2026-04-27 03:18 | -0.60550 | -78.71647 | 18968 ft | 320 kts | 57° |
| 2026-04-27 03:18 | -0.59304 | -78.69815 | 18716 ft | 317 kts | 57° |
| 2026-04-27 03:18 | -0.58189 | -78.67908 | 18443 ft | 318 kts | 66° |
| 2026-04-27 03:18 | -0.57288 | -78.65861 | 18194 ft | 322 kts | 68° |
| 2026-04-27 03:19 | -0.56430 | -78.63805 | 17914 ft | 325 kts | 68° |
| 2026-04-27 03:19 | -0.55594 | -78.61708 | 17634 ft | 326 kts | 70° |
| 2026-04-27 03:19 | -0.54793 | -78.59554 | 17347 ft | 324 kts | 71° |
| 2026-04-27 03:19 | -0.54050 | -78.57460 | 17082 ft | 320 kts | 71° |
| 2026-04-27 03:20 | -0.53311 | -78.55359 | 16811 ft | 315 kts | 71° |
| 2026-04-27 03:20 | -0.52599 | -78.53324 | 16550 ft | 312 kts | 71° |
| 2026-04-27 03:20 | -0.51890 | -78.51298 | 16451 ft | 301 kts | 71° |
| 2026-04-27 03:20 | -0.51209 | -78.49355 | 16377 ft | 291 kts | 71° |
| 2026-04-27 03:21 | -0.50550 | -78.47475 | 16313 ft | 281 kts | 71° |
| 2026-04-27 03:21 | -0.49923 | -78.45687 | 16251 ft | 271 kts | 71° |
| 2026-04-27 03:21 | -0.49308 | -78.43932 | 16191 ft | 261 kts | 71° |
| 2026-04-27 03:21 | -0.48706 | -78.42241 | 16112 ft | 252 kts | 68° |
| 2026-04-27 03:22 | -0.47694 | -78.40881 | 15987 ft | 243 kts | 35° |
| 2026-04-27 03:22 | -0.46245 | -78.40134 | 15959 ft | 227 kts | 22° |
| 2026-04-27 03:22 | -0.44806 | -78.39617 | 15870 ft | 213 kts | 20° |
| 2026-04-27 03:22 | -0.43460 | -78.39150 | 15699 ft | 202 kts | 20° |
| 2026-04-27 03:23 | -0.42129 | -78.38682 | 15305 ft | 200 kts | 20° |
| 2026-04-27 03:23 | -0.40831 | -78.38220 | 14918 ft | 199 kts | 21° |
| 2026-04-27 03:23 | -0.39535 | -78.37758 | 14523 ft | 198 kts | 19° |
| 2026-04-27 03:23 | -0.38225 | -78.37326 | 14131 ft | 197 kts | 19° |
| 2026-04-27 03:24 | -0.36932 | -78.36905 | 13705 ft | 194 kts | 19° |
| 2026-04-27 03:24 | -0.35639 | -78.36482 | 13224 ft | 194 kts | 19° |
| 2026-04-27 03:24 | -0.34380 | -78.36069 | 12819 ft | 188 kts | 19° |
| 2026-04-27 03:24 | -0.33172 | -78.35672 | 12426 ft | 180 kts | 19° |
| 2026-04-27 03:25 | -0.31984 | -78.35282 | 11947 ft | 178 kts | 19° |
| 2026-04-27 03:25 | -0.30807 | -78.34898 | 11535 ft | 176 kts | 16° |
| 2026-04-27 03:25 | -0.29606 | -78.34737 | 11136 ft | 171 kts | 1° |
| 2026-04-27 03:25 | -0.28446 | -78.34749 | 10855 ft | 170 kts | 359° |
| 2026-04-27 03:26 | -0.27270 | -78.34792 | 10633 ft | 171 kts | 358° |
| 2026-04-27 03:26 | -0.26079 | -78.34842 | 10405 ft | 172 kts | 358° |
| 2026-04-27 03:26 | -0.24889 | -78.34894 | 10186 ft | 171 kts | 358° |
| 2026-04-27 03:26 | -0.23699 | -78.34946 | 9960 ft | 170 kts | 358° |
| 2026-04-27 03:27 | -0.22512 | -78.34998 | 9732 ft | 170 kts | 358° |
| 2026-04-27 03:27 | -0.21342 | -78.35049 | 9512 ft | 170 kts | 358° |
| 2026-04-27 03:27 | -0.20138 | -78.35102 | 9283 ft | 174 kts | 358° |
| 2026-04-27 03:27 | -0.18936 | -78.35154 | 9033 ft | 170 kts | 358° |
| 2026-04-27 03:28 | -0.18156 | -78.35189 | 8833 ft | 168 kts | 358° |
| 2026-04-27 03:28 | -0.18034 | -78.35195 | 8802 ft | 168 kts | 358° |
| 2026-04-27 03:28 | -0.16886 | -78.35249 | 8565 ft | 164 kts | 358° |
| 2026-04-27 03:28 | -0.15740 | -78.35302 | 8292 ft | 165 kts | 358° |
| 2026-04-27 03:29 | -0.14590 | -78.35354 | 8024 ft | 166 kts | 358° |
| 2026-04-27 03:29 | -0.13447 | -78.35403 | 7890 ft | 155 kts | 358° |
| 2026-04-27 03:29 | -0.12520 | -78.35440 | 7848 ft | 113 kts | 356° |
| 2026-04-27 03:29 | -0.11878 | -78.35467 | 7821 ft | 65 kts | 356° |
| 2026-04-27 03:30 | -0.11668 | -78.35552 | 7816 ft | 12 kts | 329° |
| 2026-04-27 03:30 | -0.11617 | -78.35613 | 7814 ft | 11 kts | 268° |
| 2026-04-27 03:30 | -0.11658 | -78.35642 | 7815 ft | 5 kts | 184° |
| 2026-04-27 03:30 | -0.11680 | -78.35643 | 7816 ft | 2 kts | 182° |
| 2026-04-27 03:31 | -0.11691 | -78.35643 | 7817 ft | 2 kts | 180° |
| 2026-04-27 03:31 | -0.11718 | -78.35641 | 7818 ft | 6 kts | 176° |
| 2026-04-27 03:31 | -0.11771 | -78.35639 | 7820 ft | 10 kts | 178° |
| 2026-04-27 03:31 | -0.11852 | -78.35636 | 7821 ft | 13 kts | 179° |
| 2026-04-27 03:32 | -0.11954 | -78.35633 | 7828 ft | 16 kts | 177° |
| 2026-04-27 03:32 | -0.12056 | -78.35627 | 7834 ft | 12 kts | 176° |
| 2026-04-27 03:32 | -0.12126 | -78.35624 | 7837 ft | 9 kts | 178° |
| 2026-04-27 03:32 | -0.12189 | -78.35622 | 7834 ft | 9 kts | 178° |
| 2026-04-27 03:33 | -0.12261 | -78.35619 | 7840 ft | 12 kts | 176° |
| 2026-04-27 03:33 | -0.12343 | -78.35624 | 7833 ft | 12 kts | 215° |
| 2026-04-27 03:33 | -0.12375 | -78.35674 | 7837 ft | 5 kts | 199° |
| 2026-04-27 03:33 | -0.12420 | -78.35675 | 7840 ft | 8 kts | 176° |
| 2026-04-27 03:34 | -0.12449 | -78.35673 | 7841 ft | 3 kts | 177° |
| 2026-04-27 03:34 | -0.12461 | -78.35694 | 7838 ft | 5 kts | 262° |
| 2026-04-27 03:34 | -0.12462 | -78.35725 | 7841 ft | 0 kts | 269° |
| 2026-04-27 03:34 | -0.12463 | -78.35726 | 7841 ft | 0 kts | 267° |
| 2026-04-27 03:35 | -0.12463 | -78.35727 | 7841 ft | 0 kts | 268° |